Have a Safe July 4th! 

Flight Track Log - Related Links

Times and Time Zones

All times are in EDT time to prevent confusion due to time zone crossing. See the TYR394 flight status page for this flight to view local times or setup timezone preferences in your user account.

Time Position Orientation Groundspeed Altitude Reporting Facility
EDT Latitude Longitude Course Direction KTS MPH feet Rate Location/Type
Mon 03:15:00 PM 41.9545 3.2011 52° Northeast  Level Estimated
Mon 03:16:00 PM 42.0268 3.3272 52° Northeast  Level Estimated
Mon 03:17:00 PM 42.0991 3.4537 52° Northeast  Level Estimated
Mon 03:18:00 PM 42.1712 3.5804 52° Northeast  Level Estimated
Mon 03:19:00 PM 42.2431 3.7074 53° Northeast  Level Estimated
Mon 03:20:00 PM 42.3149 3.8347 53° Northeast  Level Estimated
Mon 03:21:00 PM 42.3866 3.9623 53° Northeast  Level Estimated
Mon 03:22:00 PM 42.4581 4.0902 53° Northeast  Level Estimated
Mon 03:23:00 PM 42.5295 4.2184 53° Northeast  Level Estimated
Mon 03:24:00 PM 42.6007 4.3469 53° Northeast  Level Estimated
Mon 03:25:00 PM 42.6718 4.4756 53° Northeast  Level Estimated
Mon 03:26:00 PM 42.7428 4.6047 53° Northeast  Level Estimated
Mon 03:27:00 PM 42.8136 4.7341 53° Northeast  Level Estimated
Mon 03:28:00 PM 42.8842 4.8637 53° Northeast  Level Estimated
Mon 03:29:00 PM 42.9547 4.9937 53° Northeast  Level Estimated
Mon 03:30:00 PM 43.0251 5.1239 54° Northeast  Level Estimated
Mon 03:31:00 PM 43.0953 5.2545 54° Northeast  Level Estimated
Mon 03:32:00 PM 43.1654 5.3853 54° Northeast  Level Estimated
Mon 03:33:00 PM 43.2353 5.5165 54° Northeast  Level Estimated
Mon 03:34:00 PM 43.3051 5.6479 54° Northeast  Level Estimated
Mon 03:35:00 PM 43.3747 5.7797 54° Northeast  Level Estimated
Mon 03:36:00 PM 43.4442 5.9117 54° Northeast  Level Estimated
Mon 03:37:00 PM 43.5135 6.0441 54° Northeast  Level Estimated
Mon 03:38:00 PM 43.5826 6.1767 54° Northeast  Level Estimated
Mon 03:39:00 PM 43.6516 6.3097 54° Northeast  Level Estimated
Mon 03:40:00 PM 43.7205 6.4430 54° Northeast  Level Estimated
Mon 03:41:00 PM 43.7892 6.5766 55° Northeast  Level Estimated
Mon 03:42:00 PM 43.8577 6.7105 55° Northeast  Level Estimated
Mon 03:43:00 PM 43.9261 6.8446 55° Northeast  Level Estimated
Mon 03:44:00 PM 43.9944 6.9791 55° Northeast  Level Estimated
Mon 03:45:00 PM 44.0624 7.1139 55° Northeast  Level Estimated
Mon 03:46:00 PM 44.1303 7.2491 55° Northeast  Level Estimated
Mon 03:47:00 PM 44.1981 7.3845 55° Northeast  Level Estimated
Mon 03:48:00 PM 44.2657 7.5202 55° Northeast  Level Estimated
Mon 03:49:00 PM 44.3331 7.6563 55° Northeast  Level Estimated
Mon 03:50:00 PM 44.4004 7.7927 55° Northeast  Level Estimated
Mon 03:51:00 PM 44.4675 7.9293 55° Northeast  Level Estimated
Mon 03:52:00 PM 44.5344 8.0663 56° Northeast  Level Estimated
Mon 03:53:00 PM 44.6012 8.2037 56° Northeast  Level Estimated
Mon 03:54:00 PM 44.6678 8.3413 56° Northeast  Level Estimated
Mon 03:55:00 PM 44.7342 8.4792 56° Northeast  Level Estimated
Mon 03:56:00 PM 44.8005 8.6175 56° Northeast  Level Estimated
Mon 03:57:00 PM 44.8666 8.7561 56° Northeast  Level Estimated
Mon 03:58:00 PM 44.9326 8.8950 56° Northeast  Level Estimated
Mon 03:59:00 PM 44.9984 9.0342 56° Northeast  Level Estimated
Mon 04:00:00 PM 45.0640 9.1737 56° Northeast  Level Estimated
Mon 04:01:00 PM 45.1294 9.3136 56° Northeast  Level Estimated
Mon 04:02:00 PM 45.1947 9.4537 57° Northeast  Level Estimated
Mon 04:03:00 PM 45.2598 9.5942 57° Northeast  Level Estimated
Mon 04:04:00 PM 45.3247 9.7351 57° Northeast  Level Estimated
Mon 04:05:00 PM 45.3894 9.8762 57° Northeast  Level Estimated
Mon 04:06:00 PM 45.4540 10.0177 57° Northeast  Level Estimated
Mon 04:07:00 PM 45.5184 10.1594 57° Northeast  Level Estimated
Mon 04:08:00 PM 45.5826 10.3016 57° Northeast  Level Estimated
Mon 04:09:00 PM 45.6467 10.4440 57° Northeast  Level Estimated
Mon 04:10:00 PM 45.7105 10.5868 57° Northeast  Level Estimated
Mon 04:11:00 PM 45.7742 10.7298 57° Northeast  Level Estimated
Mon 04:12:00 PM 45.8377 10.8733 58° Northeast  Level Estimated
Mon 04:13:00 PM 45.9011 11.0170 58° Northeast  Level Estimated
Mon 04:14:00 PM 45.9642 11.1611 58° Northeast  Level Estimated
Mon 04:15:00 PM 46.0272 11.3055 58° Northeast  Level Estimated
Mon 04:16:00 PM 46.0900 11.4502 58° Northeast  Level Estimated
Mon 04:17:00 PM 46.1526 11.5953 58° Northeast  Level Estimated
Mon 04:18:00 PM 46.2150 11.7407 58° Northeast  Level Estimated
Mon 04:19:00 PM 46.2772 11.8864 58° Northeast  Level Estimated
Mon 04:20:00 PM 46.3393 12.0324 58° Northeast  Level Estimated
Mon 04:21:00 PM 46.4011 12.1788 58° Northeast  Level Estimated
Mon 04:22:00 PM 46.4628 12.3255 59° Northeast  Level Estimated
Mon 04:23:00 PM 46.5243 12.4726 59° Northeast  Level Estimated
Mon 04:24:00 PM 46.5856 12.6200 59° Northeast  Level Estimated
Mon 04:25:00 PM 46.6467 12.7677 59° Northeast  Level Estimated
Mon 04:26:00 PM 46.7076 12.9157 59° Northeast  Level Estimated
Mon 04:27:00 PM 46.7684 13.0641 59° Northeast  Level Estimated
Mon 04:28:00 PM 46.8289 13.2128 59° Northeast  Level Estimated
Mon 04:29:00 PM 46.8892 13.3618 59° Northeast  Level Estimated
Mon 04:30:00 PM 46.9494 13.5112 59° Northeast  Level Estimated
Mon 04:31:00 PM 47.0093 13.6609 60° Northeast  Level Estimated
Mon 04:32:00 PM 47.0691 13.8110 60° Northeast  Level Estimated
Mon 04:33:00 PM 47.1287 13.9614 60° Northeast  Level Estimated
Mon 04:34:00 PM 47.1880 14.1121 60° Northeast  Level Estimated
Mon 04:35:00 PM 47.2472 14.2632 60° Northeast  Level Estimated
Mon 04:36:00 PM 47.3061 14.4146 60° Northeast  Level Estimated
Mon 04:37:00 PM 47.3649 14.5663 60° Northeast  Level Estimated
Mon 04:38:00 PM 47.4235 14.7184 60° Northeast  Level Estimated
Mon 04:39:00 PM 47.4818 14.8708 60° Northeast  Level Estimated
Mon 04:40:00 PM 47.5400 15.0236 61° Northeast  Level Estimated
Mon 04:41:00 PM 47.5980 15.1767 61° Northeast  Level Estimated
Mon 04:42:00 PM 47.6557 15.3301 61° Northeast  Level Estimated
Mon 04:43:00 PM 47.7133 15.4838 61° Northeast  Level Estimated
Mon 04:44:00 PM 47.7706 15.6380 61° Northeast  Level Estimated
Mon 04:45:00 PM 47.8278 15.7924 61° Northeast  Level Estimated
Mon 04:46:00 PM 47.8847 15.9472 61° Northeast  Level Estimated
Mon 04:47:00 PM 47.9414 16.1023 61° Northeast  Level Estimated
Mon 04:48:00 PM 47.9979 16.2578 61° Northeast  Level Estimated
Mon 04:49:00 PM 48.0542 16.4136 62° Northeast  Level Estimated
Mon 04:50:00 PM 48.1103 16.5697 62° Northeast  Level Estimated
Mon 04:51:00 PM 48.1103 16.5697 146° Southeast  Level Estimated
Mon 04:52:00 PM 48.1103 16.5697 146° Southeast  Level Estimated
Mon 04:53:00 PM 48.1103 16.5697 146° Southeast  Level Estimated
Mon 04:54:00 PM 48.1103 16.5697 146° Southeast  Level Estimated
Mon 04:55:00 PM 48.1103 16.5697 146° Southeast  Level Estimated
Mon 04:56:00 PM 48.1103 16.5697 146° Southeast  Level Estimated
Mon 04:57:00 PM 48.1103 16.5697 146° Southeast  Level Estimated
Mon 04:58:00 PM 48.1103 16.5697 146° Southeast  Level Estimated
Mon 04:59:00 PM 48.1103 16.5697 146° Southeast  Level Estimated
Mon 05:00:00 PM 48.1103 16.5697 146° Southeast  Level Estimated

Login

Don't have an account? Register now (free) for customized features, flight alerts, and more!